Pagina principale
METAR-TAF:

METAR-TAF

Aeroporti :

Aeroporto Internazionale di Lusaka

Lusaka, Zambia

latitudine: 15-19-51S, longitudine: 028-27-09E, altezza: 1152 m

Osservazione

Il bollettino è stato emesso 1 ora e 0 minuti fa, alle 22:00 UTC
Vento 3 kt da sud
Temperature 18°C
Umidità 34%
Pressione 1020 hPa
Visibilità 10 km o più
nessuna nube inferiore a 1500 m e nessun cumulonembo

METAR: FLKK 122200Z 17003KT CAVOK 18/02 Q1020

Ora: 01:00 (23:00 UTC)


TAF: mancante

Osservazioni e previsioni meteorologiche di più di 4000 aeroporti (messaggi METAR e TAF).

Le stazioni disponibili sono rappresentate dai dischi gialli e rossi sulla carta.

Puntare il mouse per vedere il nome della stazione.

Clicca sopra per visualizzare le osservazioni e previsioni meteorologiche.

Per cambiare la mappa : fare clic sui pulsanti verdi con una croce nera per ingrandire, il pulsante verde con un trattino per diminuire, o sulla freccia verde per le mappe adiacenti.


METAR-TAF: